Time;durP1;ratioP1;P1;durP2;ratioP2;P2;SDS_P1;SDS_P2;PMS_P1;PMS_P2;Temp;Humidity;BMP_temperature;BMP_pressure;BME280_temperature;BME280_humidity;BME280_pressure;Samples;Min_cycle;Max_cycle;Signal;HPM_P1;HPM_P2
2023/03/05 00:01:49;;;;;;;17.70;2.40;;;2.90;99.90;;;;;;12367346;28;20138;-79
2023/03/05 00:07:51;;;;;;;15.93;2.38;;;2.90;99.90;;;;;;12334842;28;20050;-81
2023/03/05 00:13:54;;;;;;;9.68;1.90;;;2.90;99.90;;;;;;12334122;28;20035;-79
2023/03/05 00:19:57;;;;;;;13.63;2.22;;;2.80;99.90;;;;;;12346776;28;20053;-80
2023/03/05 00:26:04;;;;;;;9.63;2.17;;;2.80;99.90;;;;;;12335746;28;20627;-79
2023/03/05 00:32:05;;;;;;;9.57;2.08;;;2.70;99.90;;;;;;12327593;28;20042;-80
2023/03/05 00:38:08;;;;;;;12.43;2.50;;;2.60;99.90;;;;;;12337713;28;20066;-80
2023/03/05 00:44:10;;;;;;;11.13;2.05;;;2.70;99.90;;;;;;12295847;28;20125;-80
2023/03/05 00:50:12;;;;;;;10.55;2.17;;;2.60;99.90;;;;;;12357498;28;20510;-80
2023/03/05 00:56:14;;;;;;;12.18;2.60;;;2.60;99.90;;;;;;12355308;28;20054;-79
2023/03/05 01:02:17;;;;;;;17.00;2.75;;;2.60;99.90;;;;;;12342366;28;20082;-80
2023/03/05 01:08:19;;;;;;;9.88;2.70;;;2.70;99.90;;;;;;12333260;28;20047;-80
2023/03/05 01:14:21;;;;;;;16.05;2.90;;;2.70;99.90;;;;;;12337286;28;20042;-80
2023/03/05 01:20:23;;;;;;;12.43;2.90;;;2.70;99.90;;;;;;12332194;28;20090;-79
2023/03/05 01:26:25;;;;;;;12.38;2.65;;;2.70;99.90;;;;;;12305197;28;20659;-80
2023/03/05 01:32:27;;;;;;;10.90;2.35;;;2.70;99.90;;;;;;12348298;28;20054;-79
2023/03/05 01:38:29;;;;;;;12.88;2.38;;;2.60;99.90;;;;;;12328562;28;20047;-79
2023/03/05 01:44:32;;;;;;;11.40;2.97;;;2.60;99.90;;;;;;12322372;28;20059;-79
2023/03/05 01:50:34;;;;;;;13.57;2.90;;;2.50;99.90;;;;;;12338455;28;20178;-80
2023/03/05 01:56:37;;;;;;;12.02;2.38;;;2.60;99.90;;;;;;12331111;28;20125;-79
2023/03/05 02:02:42;;;;;;;14.23;3.23;;;2.60;99.90;;;;;;12334550;28;20047;-80
2023/03/05 02:08:44;;;;;;;10.45;2.40;;;2.60;99.90;;;;;;12337030;28;20090;-80
2023/03/05 02:14:49;;;;;;;10.93;2.50;;;2.60;99.90;;;;;;12357902;28;20491;-79
2023/03/05 02:21:03;;;;;;;13.85;3.20;;;2.60;99.90;;;;;;12346229;28;20046;-80
2023/03/05 02:27:05;;;;;;;14.15;2.80;;;2.50;99.90;;;;;;12339552;28;20186;-79
2023/03/05 02:33:07;;;;;;;11.25;3.15;;;2.60;99.90;;;;;;12260558;28;20071;-80
2023/03/05 02:39:09;;;;;;;12.05;3.65;;;2.50;99.90;;;;;;12311320;28;20500;-78
2023/03/05 02:45:12;;;;;;;13.43;4.07;;;2.60;99.90;;;;;;12277854;28;20051;-79
2023/03/05 02:51:14;;;;;;;14.27;5.03;;;2.50;99.90;;;;;;12290516;28;20071;-79
2023/03/05 02:57:17;;;;;;;15.98;4.38;;;2.50;99.90;;;;;;12299098;28;20137;-79
2023/03/05 03:03:19;;;;;;;12.60;4.60;;;2.60;99.90;;;;;;12263794;28;20074;-79
2023/03/05 03:09:21;;;;;;;15.88;4.90;;;2.60;99.90;;;;;;12270578;28;20518;-79
2023/03/05 03:15:23;;;;;;;11.82;4.35;;;2.60;99.90;;;;;;12309496;28;20141;-80
2023/03/05 03:21:25;;;;;;;12.48;4.60;;;2.70;99.90;;;;;;12271282;28;20081;-79
2023/03/05 03:27:27;;;;;;;13.73;4.55;;;2.60;99.90;;;;;;12316733;28;20055;-79
2023/03/05 03:33:30;;;;;;;10.60;3.80;;;2.60;99.90;;;;;;12347729;28;20126;-79
2023/03/05 03:39:32;;;;;;;10.75;3.92;;;2.60;99.90;;;;;;12361849;28;20055;-79
2023/03/05 03:45:34;;;;;;;14.00;3.60;;;2.60;99.90;;;;;;12310835;28;20055;-79
2023/03/05 03:51:36;;;;;;;13.25;3.13;;;2.60;99.90;;;;;;12332488;28;20137;-79
2023/03/05 03:57:38;;;;;;;14.80;3.40;;;2.60;99.90;;;;;;12360575;28;20089;-79
2023/03/05 04:03:40;;;;;;;7.53;2.60;;;2.60;99.90;;;;;;12307235;28;20043;-79
2023/03/05 04:09:42;;;;;;;11.60;3.47;;;2.60;99.90;;;;;;12335057;28;20400;-79
2023/03/05 04:15:44;;;;;;;11.23;3.00;;;2.60;99.90;;;;;;12333906;28;20411;-78
2023/03/05 04:21:45;;;;;;;13.43;3.28;;;2.60;99.90;;;;;;12317782;28;20062;-79
2023/03/05 04:28:01;;;;;;;10.63;2.95;;;2.60;99.90;;;;;;12526731;28;20482;-35
2023/03/05 04:34:03;;;;;;;9.00;2.90;;;2.50;99.90;;;;;;12492711;28;20094;-36
2023/03/05 04:40:06;;;;;;;8.00;2.75;;;2.60;99.90;;;;;;12501903;28;20073;-36
2023/03/05 04:46:08;;;;;;;10.00;3.15;;;2.60;99.90;;;;;;12455130;28;20042;-36
2023/03/05 04:52:12;;;;;;;7.60;3.00;;;2.60;99.90;;;;;;12466364;23;20121;-79
2023/03/05 04:58:14;;;;;;;10.20;2.67;;;2.50;99.90;;;;;;12426021;28;20156;-78
2023/03/05 05:04:15;;;;;;;6.72;2.80;;;2.60;99.90;;;;;;12412435;28;20796;-78
2023/03/05 05:10:18;;;;;;;12.52;3.00;;;2.50;99.90;;;;;;12428578;28;20064;-78
2023/03/05 05:16:20;;;;;;;13.07;3.40;;;2.50;99.90;;;;;;12427126;28;20054;-78
2023/03/05 05:22:23;;;;;;;8.80;3.20;;;2.50;99.90;;;;;;12396492;28;20050;-78
2023/03/05 05:28:25;;;;;;;10.82;3.60;;;2.60;99.90;;;;;;12367170;28;20047;-79
2023/03/05 05:34:27;;;;;;;5.53;3.03;;;2.60;99.90;;;;;;12419496;28;20091;-79
2023/03/05 05:40:29;;;;;;;11.18;3.45;;;2.60;99.90;;;;;;12370312;28;20058;-79
2023/03/05 05:46:31;;;;;;;15.77;3.92;;;2.60;99.90;;;;;;12338464;28;20422;-78
2023/03/05 05:52:33;;;;;;;10.63;2.90;;;2.50;99.90;;;;;;12376117;28;20486;-78
2023/03/05 05:58:37;;;;;;;7.32;3.00;;;2.50;99.90;;;;;;12381555;28;20058;-79
2023/03/05 06:04:39;;;;;;;10.17;3.23;;;2.50;99.90;;;;;;12385506;28;20046;-79
2023/03/05 06:10:41;;;;;;;12.98;3.40;;;2.50;99.90;;;;;;12380758;28;20348;-79
2023/03/05 06:16:43;;;;;;;7.22;3.17;;;2.50;99.90;;;;;;12369241;28;20521;-80
2023/03/05 06:22:46;;;;;;;6.93;3.97;;;2.40;99.90;;;;;;12357274;28;20056;-79
2023/03/05 06:28:49;;;;;;;11.82;4.30;;;2.40;99.90;;;;;;12339631;28;20047;-79
2023/03/05 06:34:51;;;;;;;13.60;4.80;;;2.50;99.90;;;;;;12378578;28;20604;-79
2023/03/05 06:40:53;;;;;;;11.48;4.18;;;2.40;99.90;;;;;;12368467;28;20076;-79
2023/03/05 06:46:55;;;;;;;10.68;4.25;;;2.40;99.90;;;;;;12354624;28;20142;-79
2023/03/05 06:52:57;;;;;;;18.45;4.78;;;2.40;99.90;;;;;;12351018;28;20042;-80
2023/03/05 06:58:59;;;;;;;13.40;4.40;;;2.40;99.90;;;;;;12389829;28;20129;-79
2023/03/05 07:05:01;;;;;;;9.40;3.95;;;2.40;99.90;;;;;;12354540;28;20756;-80
2023/03/05 07:11:07;;;;;;;12.50;4.28;;;2.40;99.90;;;;;;12346349;28;20125;-80
2023/03/05 07:17:10;;;;;;;9.48;3.95;;;2.50;99.90;;;;;;12387763;28;20054;-79
2023/03/05 07:23:11;;;;;;;10.82;3.90;;;2.40;99.90;;;;;;12365764;28;21125;-79
2023/03/05 07:29:13;;;;;;;8.63;3.80;;;2.50;99.90;;;;;;12370974;28;20065;-80
2023/03/05 07:35:16;;;;;;;11.93;3.63;;;2.50;99.90;;;;;;12368525;28;20051;-79
2023/03/05 07:41:18;;;;;;;8.02;3.70;;;2.60;99.90;;;;;;12358456;28;20100;-80
2023/03/05 07:47:22;;;;;;;11.75;4.07;;;2.70;99.90;;;;;;12368020;28;20042;-80
2023/03/05 07:53:24;;;;;;;8.18;3.17;;;2.80;99.90;;;;;;12332669;28;20047;-79
2023/03/05 07:59:26;;;;;;;7.57;2.63;;;2.80;99.90;;;;;;12342466;28;20113;-80
2023/03/05 08:05:28;;;;;;;6.32;2.55;;;2.80;99.90;;;;;;12315191;28;20043;-80
2023/03/05 08:11:30;;;;;;;8.40;2.28;;;2.90;99.90;;;;;;12319180;28;20419;-80
2023/03/05 08:17:32;;;;;;;8.10;2.40;;;3.10;99.90;;;;;;12307225;28;20499;-80
2023/03/05 08:23:33;;;;;;;8.60;2.97;;;3.00;99.90;;;;;;12325314;28;20069;-80
2023/03/05 08:29:35;;;;;;;4.55;2.28;;;3.00;99.90;;;;;;12302601;28;20074;-80
2023/03/05 08:35:37;;;;;;;5.22;2.40;;;3.10;99.90;;;;;;12328740;28;20174;-80
2023/03/05 08:41:39;;;;;;;9.57;3.70;;;3.20;99.90;;;;;;12309898;28;20134;-79
2023/03/05 08:47:41;;;;;;;7.68;2.83;;;3.40;99.90;;;;;;12316869;28;20047;-79
2023/03/05 08:53:44;;;;;;;8.73;3.55;;;3.30;99.90;;;;;;12353485;28;20050;-79
2023/03/05 08:59:47;;;;;;;5.60;2.78;;;3.30;99.90;;;;;;12375255;28;20065;-79
2023/03/05 09:05:50;;;;;;;6.25;2.13;;;3.60;99.90;;;;;;12350391;28;20042;-80
2023/03/05 09:11:52;;;;;;;5.85;2.10;;;3.50;99.90;;;;;;12362145;28;20046;-79
2023/03/05 09:17:54;;;;;;;8.63;2.63;;;3.60;99.90;;;;;;12341944;28;20070;-78
2023/03/05 09:23:59;;;;;;;7.03;2.00;;;4.00;99.90;;;;;;12370126;28;20053;-80
2023/03/05 09:30:03;;;;;;;7.45;1.88;;;3.80;99.90;;;;;;12354737;28;20042;-80
2023/03/05 09:36:16;;;;;;;4.80;1.90;;;3.90;99.90;;;;;;12352126;28;20063;-79
2023/03/05 09:42:28;;;;;;;7.72;1.48;;;3.90;99.90;;;;;;12352854;28;20133;-79
2023/03/05 09:48:48;;;;;;;10.18;3.47;;;3.90;99.90;;;;;;12364926;28;20053;-79
2023/03/05 09:54:54;;;;;;;7.43;1.70;;;3.70;99.90;;;;;;12380340;28;20089;-79
2023/03/05 10:01:16;;;;;;;4.10;1.60;;;3.70;99.90;;;;;;12379954;28;20187;-78
2023/03/05 10:07:27;;;;;;;5.50;2.05;;;3.70;99.90;;;;;;12365714;28;20081;-79
2023/03/05 10:13:35;;;;;;;4.00;1.98;;;3.80;99.90;;;;;;12361865;28;20050;-78
2023/03/05 10:19:43;;;;;;;8.90;2.45;;;3.80;99.90;;;;;;12370930;28;20054;-78
2023/03/05 10:25:51;;;;;;;5.47;1.60;;;4.00;99.90;;;;;;12352967;28;20042;-78
2023/03/05 10:32:17;;;;;;;3.72;1.92;;;4.30;99.90;;;;;;12361950;28;20167;-78
2023/03/05 10:38:45;;;;;;;3.72;1.52;;;4.80;99.90;;;;;;12373507;28;20054;-79
2023/03/05 10:44:52;;;;;;;4.07;1.30;;;5.30;99.90;;;;;;12363083;28;20590;-78
2023/03/05 10:51:33;;;;;;;2.97;1.00;;;5.10;99.90;;;;;;12368281;28;20039;-77
2023/03/05 10:57:35;;;;;;;3.10;1.02;;;4.80;99.90;;;;;;12342363;28;20054;-78
2023/03/05 11:03:49;;;;;;;7.00;1.15;;;5.00;99.90;;;;;;12356749;28;20042;-79
2023/03/05 11:10:02;;;;;;;4.05;1.10;;;4.60;99.90;;;;;;12362603;28;20419;-78
2023/03/05 11:16:06;;;;;;;8.05;1.60;;;5.20;99.90;;;;;;12371141;28;20054;-79
2023/03/05 11:22:17;;;;;;;3.30;1.40;;;5.40;99.90;;;;;;12376326;28;20051;-77
2023/03/05 11:28:25;;;;;;;4.70;1.50;;;5.20;99.90;;;;;;12366026;28;20042;-80
2023/03/05 11:34:34;;;;;;;2.58;1.15;;;5.40;99.90;;;;;;12351865;28;20050;-78
2023/03/05 11:40:36;;;;;;;2.40;1.10;;;5.60;99.90;;;;;;12364356;28;20062;-78
2023/03/05 11:46:52;;;;;;;5.20;1.67;;;5.90;99.90;;;;;;12350200;28;20053;-78
2023/03/05 11:52:56;;;;;;;3.40;1.20;;;6.00;99.90;;;;;;12374483;28;20062;-78
2023/03/05 11:59:19;;;;;;;5.30;2.40;;;6.10;99.90;;;;;;12351370;28;20264;-79
2023/03/05 12:05:21;;;;;;;3.40;1.10;;;6.10;99.90;;;;;;12369635;28;20042;-79
2023/03/05 12:11:31;;;;;;;2.33;1.00;;;5.90;99.90;;;;;;12365123;28;20181;-78
2023/03/05 12:18:06;;;;;;;4.38;0.90;;;5.50;99.90;;;;;;12380351;28;20133;-78
2023/03/05 12:24:24;;;;;;;2.92;0.90;;;5.50;99.90;;;;;;12366262;28;20406;-78
2023/03/05 12:30:49;;;;;;;3.50;0.70;;;5.50;99.90;;;;;;12372412;28;20047;-78
2023/03/05 12:36:51;;;;;;;3.13;0.57;;;6.00;99.90;;;;;;12365928;28;20149;-78
2023/03/05 12:43:01;;;;;;;1.20;0.45;;;6.70;99.90;;;;;;12358409;28;20134;-78
2023/03/05 12:49:19;;;;;;;3.67;0.80;;;6.90;99.90;;;;;;12370380;28;20100;-79
2023/03/05 12:55:46;;;;;;;1.80;0.65;;;6.60;99.90;;;;;;12407190;28;20050;-78
2023/03/05 13:01:57;;;;;;;3.20;0.60;;;6.60;99.90;;;;;;12373023;28;20047;-79
2023/03/05 13:08:20;;;;;;;3.35;0.70;;;6.30;99.90;;;;;;12364396;28;20051;-78
2023/03/05 13:14:28;;;;;;;2.50;0.63;;;6.20;99.90;;;;;;12358899;28;20081;-79
2023/03/05 13:20:39;;;;;;;2.47;0.73;;;6.10;99.90;;;;;;12378443;28;20042;-79
2023/03/05 13:26:41;;;;;;;1.98;0.80;;;5.90;99.90;;;;;;12374109;28;20475;-79
2023/03/05 13:32:43;;;;;;;2.45;0.68;;;6.00;99.90;;;;;;12376823;28;20047;-79
2023/03/05 13:38:46;;;;;;;4.45;1.02;;;6.20;99.90;;;;;;12373031;28;20241;-79
2023/03/05 13:44:57;;;;;;;3.58;1.00;;;6.60;99.90;;;;;;12366457;28;20050;-79
2023/03/05 13:50:59;;;;;;;4.07;1.10;;;6.30;99.90;;;;;;12350405;28;20050;-80
2023/03/05 13:57:05;;;;;;;4.05;0.80;;;6.20;99.90;;;;;;12388431;28;20042;-79
2023/03/05 14:03:26;;;;;;;1.95;0.60;;;6.10;99.90;;;;;;12357699;28;20466;-79
2023/03/05 14:09:37;;;;;;;1.50;0.77;;;6.30;99.90;;;;;;12358440;28;20050;-79
2023/03/05 14:15:39;;;;;;;2.72;0.60;;;6.40;99.90;;;;;;12372287;28;20061;-79
2023/03/05 14:21:45;;;;;;;1.90;0.60;;;6.30;99.90;;;;;;12369175;28;20503;-79
2023/03/05 14:27:47;;;;;;;4.13;0.88;;;6.10;99.90;;;;;;12358725;28;20054;-79
2023/03/05 14:33:51;;;;;;;4.50;0.85;;;5.90;99.90;;;;;;12371173;28;20081;-79
2023/03/05 14:39:58;;;;;;;3.35;1.17;;;5.60;99.90;;;;;;12379660;28;20053;-80
2023/03/05 14:46:00;;;;;;;1.48;0.65;;;5.50;99.90;;;;;;12376630;28;20049;-79
2023/03/05 14:52:02;;;;;;;6.75;1.20;;;5.50;99.90;;;;;;12367940;28;20044;-80
2023/03/05 14:58:16;;;;;;;4.63;1.17;;;5.40;99.90;;;;;;12376812;28;20078;-79
2023/03/05 15:04:18;;;;;;;4.57;1.03;;;5.60;99.90;;;;;;12337803;28;20054;-79
2023/03/05 15:10:23;;;;;;;2.25;0.70;;;5.50;99.90;;;;;;12365682;28;20498;-79
2023/03/05 15:16:25;;;;;;;2.72;0.60;;;5.50;99.90;;;;;;12376158;28;20054;-79
2023/03/05 15:22:26;;;;;;;4.07;0.90;;;5.50;99.90;;;;;;12376355;28;20054;-79
2023/03/05 15:28:28;;;;;;;1.83;0.70;;;5.60;99.90;;;;;;12359638;28;20532;-79
2023/03/05 15:34:32;;;;;;;1.95;0.57;;;5.60;99.90;;;;;;12355626;28;20197;-79
2023/03/05 15:40:34;;;;;;;4.10;1.10;;;5.60;99.90;;;;;;12339284;28;20050;-79
2023/03/05 15:46:36;;;;;;;3.60;0.70;;;5.50;99.90;;;;;;12357873;28;20128;-79
2023/03/05 15:52:38;;;;;;;4.80;1.35;;;5.50;99.90;;;;;;12338030;28;20057;-79
2023/03/05 15:58:42;;;;;;;4.05;0.93;;;5.50;99.90;;;;;;12313312;28;20098;-79
2023/03/05 16:04:44;;;;;;;5.40;1.00;;;5.40;99.90;;;;;;12316075;28;20042;-79
2023/03/05 16:10:46;;;;;;;2.75;0.88;;;5.40;99.90;;;;;;12334243;28;20464;-80
2023/03/05 16:16:49;;;;;;;6.50;0.90;;;5.30;99.90;;;;;;12332106;28;20047;-79
2023/03/05 16:22:51;;;;;;;5.17;1.10;;;5.20;99.90;;;;;;12338781;28;20562;-79
2023/03/05 16:28:53;;;;;;;5.90;1.25;;;5.20;99.90;;;;;;12360832;28;20310;-79
2023/03/05 16:34:57;;;;;;;5.00;1.20;;;5.20;99.90;;;;;;12347608;28;20129;-79
2023/03/05 16:40:58;;;;;;;5.40;0.82;;;5.10;99.90;;;;;;12329347;28;20061;-80
2023/03/05 16:47:11;;;;;;;3.45;0.75;;;5.10;99.90;;;;;;12372873;28;20090;-80
2023/03/05 16:53:13;;;;;;;4.97;0.87;;;5.10;99.90;;;;;;12393577;28;20027;-79
2023/03/05 16:59:15;;;;;;;3.67;0.90;;;5.10;99.90;;;;;;12381342;28;20035;-80
2023/03/05 17:05:16;;;;;;;3.55;0.70;;;5.00;99.90;;;;;;12380484;28;20062;-80
2023/03/05 17:11:19;;;;;;;4.13;0.75;;;5.00;99.90;;;;;;12367128;28;20126;-79
2023/03/05 17:17:21;;;;;;;2.75;0.77;;;4.90;99.90;;;;;;12338230;28;20065;-80
2023/03/05 17:23:24;;;;;;;2.28;0.77;;;4.80;99.90;;;;;;12338691;28;20122;-80
2023/03/05 17:29:26;;;;;;;4.85;1.30;;;4.80;99.90;;;;;;12326706;28;20051;-79
2023/03/05 17:35:28;;;;;;;3.05;0.95;;;4.70;99.90;;;;;;12340116;28;20535;-80
2023/03/05 17:41:30;;;;;;;4.57;1.05;;;4.70;99.90;;;;;;12346409;28;20070;-80
2023/03/05 17:47:35;;;;;;;7.68;1.08;;;4.70;99.90;;;;;;12334086;28;22139;-81
2023/03/05 17:53:38;;;;;;;5.70;1.30;;;4.60;99.90;;;;;;12352610;28;20896;-80
2023/03/05 17:59:40;;;;;;;6.40;2.35;;;4.60;99.90;;;;;;12337584;28;20110;-80
2023/03/05 18:05:45;;;;;;;4.13;1.20;;;4.50;99.90;;;;;;12326252;28;20058;-80
2023/03/05 18:11:47;;;;;;;2.92;1.00;;;4.50;99.90;;;;;;12347516;28;20155;-80
2023/03/05 18:17:50;;;;;;;2.97;0.88;;;4.50;99.90;;;;;;12348432;28;20050;-80
2023/03/05 18:23:53;;;;;;;3.90;1.00;;;4.50;99.90;;;;;;12344696;28;20083;-80
2023/03/05 18:29:55;;;;;;;4.75;0.98;;;4.50;99.90;;;;;;12337499;28;20236;-80
2023/03/05 18:35:57;;;;;;;7.15;0.95;;;4.50;99.90;;;;;;12324025;28;20097;-81
2023/03/05 18:41:59;;;;;;;4.15;1.30;;;4.50;99.90;;;;;;12332940;28;20051;-81
2023/03/05 18:48:01;;;;;;;6.57;1.50;;;4.60;99.90;;;;;;12337953;28;20069;-80
2023/03/05 18:54:03;;;;;;;2.60;1.05;;;4.50;99.90;;;;;;12362234;28;20047;-79
2023/03/05 19:00:06;;;;;;;4.70;1.23;;;4.30;99.90;;;;;;12372298;28;20046;-79
2023/03/05 19:06:08;;;;;;;6.32;1.58;;;4.20;99.90;;;;;;12346232;28;20046;-80
2023/03/05 19:12:14;;;;;;;7.35;1.23;;;4.10;99.90;;;;;;12336237;28;20471;-80
2023/03/05 19:18:17;;;;;;;2.72;1.00;;;3.90;99.90;;;;;;12359078;28;20054;-80
2023/03/05 19:24:24;;;;;;;2.67;0.90;;;3.80;99.90;;;;;;12363116;28;20050;-80
2023/03/05 19:30:26;;;;;;;4.75;1.33;;;3.80;99.90;;;;;;12361763;28;20137;-80
2023/03/05 19:36:29;;;;;;;3.30;1.17;;;3.70;99.90;;;;;;12383367;28;20467;-80
2023/03/05 19:42:31;;;;;;;3.60;1.23;;;3.70;99.90;;;;;;12360921;28;20408;-80
2023/03/05 19:48:34;;;;;;;3.25;1.10;;;3.80;99.90;;;;;;12366881;28;20411;-80
2023/03/05 19:54:36;;;;;;;3.95;1.30;;;3.70;99.90;;;;;;12376218;28;20531;-80
2023/03/05 20:00:38;;;;;;;4.65;1.20;;;3.60;99.90;;;;;;12361204;28;20050;-79
2023/03/05 20:06:40;;;;;;;4.22;1.48;;;3.60;99.90;;;;;;12373994;28;20042;-79
2023/03/05 20:12:46;;;;;;;3.20;1.10;;;3.60;99.90;;;;;;12366249;28;20053;-80
2023/03/05 20:18:51;;;;;;;4.45;1.50;;;3.70;99.90;;;;;;12353829;28;20427;-80
2023/03/05 20:24:53;;;;;;;5.07;1.50;;;3.70;99.90;;;;;;12376069;28;20053;-80
2023/03/05 20:30:56;;;;;;;3.67;1.30;;;3.60;99.90;;;;;;12367564;28;20059;-81
2023/03/05 20:36:58;;;;;;;6.22;1.77;;;3.60;99.90;;;;;;12361077;28;20061;-81
2023/03/05 20:43:02;;;;;;;5.57;1.70;;;3.60;99.90;;;;;;12367749;28;20152;-80
2023/03/05 20:49:04;;;;;;;5.13;1.90;;;3.50;99.90;;;;;;12371585;28;20050;-80
2023/03/05 20:55:08;;;;;;;8.98;2.10;;;3.50;99.90;;;;;;12358221;28;20046;-80
2023/03/05 21:01:10;;;;;;;7.68;2.15;;;3.40;99.90;;;;;;12370883;28;20057;-80
2023/03/05 21:07:12;;;;;;;4.25;1.52;;;3.30;99.90;;;;;;12368060;28;20038;-79
2023/03/05 21:13:14;;;;;;;5.72;1.63;;;3.40;99.90;;;;;;12378129;28;20146;-79
2023/03/05 21:19:16;;;;;;;5.45;1.73;;;3.40;99.90;;;;;;12380971;28;20050;-79
2023/03/05 21:25:20;;;;;;;6.55;2.15;;;3.30;99.90;;;;;;12383493;28;20061;-80
2023/03/05 21:31:23;;;;;;;6.13;1.83;;;3.30;99.90;;;;;;12367218;28;20054;-78
2023/03/05 21:37:25;;;;;;;7.20;1.85;;;3.20;99.90;;;;;;12374030;28;20085;-79
2023/03/05 21:43:29;;;;;;;6.82;2.28;;;3.20;99.90;;;;;;12397249;28;20614;-78
2023/03/05 21:49:31;;;;;;;;;;;3.20;99.90;;;;;;12383141;28;20062;-78
2023/03/05 21:55:43;;;;;;;4.82;1.80;;;3.30;99.90;;;;;;12371266;28;19932;-78
2023/03/05 22:01:45;;;;;;;10.15;2.22;;;3.30;99.90;;;;;;12374613;28;20050;-79
2023/03/05 22:07:47;;;;;;;4.65;1.70;;;3.30;99.90;;;;;;12385368;28;20050;-78
2023/03/05 22:13:49;;;;;;;5.63;2.22;;;3.20;99.90;;;;;;12401411;28;20050;-78
2023/03/05 22:19:51;;;;;;;5.00;2.03;;;3.20;99.90;;;;;;12376632;28;20110;-78
2023/03/05 22:25:56;;;;;;;6.72;2.45;;;3.30;99.90;;;;;;12365115;28;20088;-78
2023/03/05 22:31:57;;;;;;;6.32;2.75;;;3.20;99.90;;;;;;12379460;28;20042;-79
2023/03/05 22:37:59;;;;;;;5.68;2.33;;;3.20;99.90;;;;;;12377668;28;20074;-78
2023/03/05 22:44:01;;;;;;;8.00;2.50;;;3.20;99.90;;;;;;12319215;28;20050;-78
2023/03/05 22:50:04;;;;;;;5.53;2.00;;;3.20;99.90;;;;;;12358525;28;20062;-79
2023/03/05 22:56:13;;;;;;;3.60;1.80;;;3.10;99.90;;;;;;12366486;28;20141;-78
2023/03/05 23:02:15;;;;;;;5.25;2.10;;;3.10;99.90;;;;;;12387281;28;20442;-78
2023/03/05 23:08:17;;;;;;;6.80;2.03;;;3.10;99.90;;;;;;12361697;28;20074;-79
2023/03/05 23:14:19;;;;;;;4.63;2.17;;;3.10;99.90;;;;;;12367551;28;20042;-78
2023/03/05 23:20:25;;;;;;;4.15;2.35;;;3.10;99.90;;;;;;12364216;28;20212;-78
2023/03/05 23:26:27;;;;;;;5.40;2.42;;;3.10;99.90;;;;;;12367109;28;20046;-78
2023/03/05 23:32:29;;;;;;;6.25;2.50;;;3.10;99.90;;;;;;12381290;28;20107;-79
2023/03/05 23:38:32;;;;;;;6.20;2.50;;;3.10;99.90;;;;;;12355415;28;20406;-78
2023/03/05 23:44:33;;;;;;;5.65;2.33;;;3.00;99.90;;;;;;12347860;28;20496;-78
2023/03/05 23:50:38;;;;;;;6.35;2.50;;;3.10;99.90;;;;;;12344467;28;20112;-78
2023/03/05 23:56:40;;;;;;;5.07;2.65;;;3.00;99.90;;;;;;12376122;28;20059;-79
